createdAt,value
2022-11-16T00:01:59.410Z,5.45
2022-11-16T00:04:31.289Z,5.52
2022-11-16T00:07:02.921Z,5.55
2022-11-16T00:09:34.872Z,5.58
2022-11-16T00:12:06.368Z,5.62
2022-11-16T00:14:38.254Z,5.51
2022-11-16T00:17:09.806Z,5.37
2022-11-16T00:19:41.650Z,5.49
2022-11-16T00:22:13.141Z,5.42
2022-11-16T00:24:44.887Z,5.43
2022-11-16T00:27:16.385Z,5.37
2022-11-16T00:29:48.038Z,5.43
2022-11-16T00:32:19.536Z,5.38
2022-11-16T00:34:51.340Z,5.37
2022-11-16T00:37:22.833Z,5.44
2022-11-16T00:39:54.790Z,5.44
2022-11-16T00:42:26.292Z,5.39
2022-11-16T00:44:58.141Z,5.39
2022-11-16T00:47:29.632Z,5.42
2022-11-16T00:50:01.504Z,5.45
2022-11-16T00:52:33.049Z,5.31
2022-11-16T00:55:04.851Z,5.39
2022-11-16T00:57:36.357Z,5.44
2022-11-16T01:00:09.480Z,5.42
2022-11-16T01:02:41.338Z,5.32
2022-11-16T01:05:12.912Z,5.38
2022-11-16T01:07:44.412Z,5.26
2022-11-16T01:10:16.248Z,5.19
2022-11-16T01:12:47.729Z,5.25
2022-11-16T01:15:19.532Z,5.15
2022-11-16T01:17:51.030Z,5.17
2022-11-16T01:20:22.868Z,5.18
2022-11-16T01:22:54.392Z,5.11
2022-11-16T01:25:26.284Z,5.11
2022-11-16T01:27:57.766Z,5.07
2022-11-16T01:30:29.566Z,5.13
2022-11-16T01:33:01.044Z,5.18
2022-11-16T01:35:32.861Z,5.16
2022-11-16T01:38:05.056Z,5.14
2022-11-16T01:40:36.564Z,5.16
2022-11-16T01:43:08.085Z,5.16
2022-11-16T01:45:41.481Z,5.13
2022-11-16T01:48:13.057Z,5.12
2022-11-16T01:50:44.863Z,5.07
2022-11-16T01:53:16.362Z,5.19
2022-11-16T01:55:48.162Z,5.20
2022-11-16T01:58:19.649Z,5.22
2022-11-16T02:00:51.534Z,5.17
2022-11-16T02:03:23.047Z,5.29
2022-11-16T02:05:54.552Z,5.21
2022-11-16T02:08:45.094Z,5.12
2022-11-16T02:11:16.577Z,4.55
2022-11-16T02:13:49.614Z,5.04
2022-11-16T02:16:22.899Z,5.07
2022-11-16T02:18:54.713Z,5.07
2022-11-16T02:21:26.242Z,4.99
2022-11-16T02:23:57.750Z,5.02
2022-11-16T02:26:29.251Z,5.06
2022-11-16T02:29:01.059Z,5.01
2022-11-16T02:31:32.562Z,4.98
2022-11-16T02:34:04.250Z,4.98
2022-11-16T02:36:35.742Z,4.99
2022-11-16T02:39:07.528Z,4.99
2022-11-16T02:41:39.000Z,4.90
2022-11-16T02:44:10.822Z,4.77
2022-11-16T02:46:42.313Z,4.82
2022-11-16T02:49:14.172Z,4.85
2022-11-16T02:51:45.656Z,4.91
2022-11-16T02:54:17.459Z,4.86
2022-11-16T02:56:48.948Z,4.89
2022-11-16T02:59:20.743Z,4.88
2022-11-16T03:01:52.236Z,4.87
2022-11-16T03:04:24.214Z,4.95
2022-11-16T03:06:55.730Z,4.93
2022-11-16T03:09:27.563Z,4.83
2022-11-16T03:12:02.856Z,4.84
2022-11-16T03:14:34.710Z,4.86
2022-11-16T03:17:06.818Z,4.89
2022-11-16T03:19:38.837Z,4.89
2022-11-16T03:22:10.365Z,4.88
2022-11-16T03:24:42.358Z,4.77
2022-11-16T03:27:13.843Z,4.81
2022-11-16T03:29:45.698Z,4.85
2022-11-16T03:32:17.191Z,4.84
2022-11-16T03:34:49.047Z,4.89
2022-11-16T03:37:20.540Z,4.89
2022-11-16T03:39:52.519Z,4.87
2022-11-16T03:42:24.021Z,4.94
2022-11-16T03:44:55.988Z,4.89
2022-11-16T03:47:27.486Z,4.84
2022-11-16T03:49:59.356Z,4.82
2022-11-16T03:52:31.225Z,4.78
2022-11-16T03:55:03.036Z,4.82
2022-11-16T03:57:34.537Z,4.89
2022-11-16T04:00:06.361Z,4.88
2022-11-16T04:02:37.841Z,4.93
2022-11-16T04:05:28.669Z,4.89
2022-11-16T04:08:18.787Z,4.90
2022-11-16T04:11:09.013Z,4.95
2022-11-16T04:13:59.485Z,4.99
2022-11-16T04:16:49.765Z,4.98
2022-11-16T04:19:40.145Z,5.03
2022-11-16T04:22:30.323Z,5.00
2022-11-16T04:25:02.305Z,4.99
2022-11-16T04:27:52.581Z,5.05
2022-11-16T04:30:24.419Z,5.06
2022-11-16T04:33:14.734Z,5.15
2022-11-16T04:36:05.122Z,5.19
2022-11-16T04:38:36.797Z,5.17
2022-11-16T04:41:29.459Z,5.20
2022-11-16T04:44:00.965Z,5.27
2022-11-16T04:46:51.491Z,5.24
2022-11-16T04:49:23.276Z,5.26
2022-11-16T04:51:54.885Z,5.28
2022-11-16T04:54:26.755Z,5.24
2022-11-16T04:56:58.270Z,5.27
2022-11-16T04:59:30.079Z,4.24
2022-11-16T05:02:10.830Z,5.33
2022-11-16T05:04:42.371Z,5.30
2022-11-16T05:07:13.926Z,5.33
2022-11-16T05:09:45.886Z,5.39
2022-11-16T05:12:17.452Z,5.38
2022-11-16T05:14:49.404Z,5.41
2022-11-16T05:17:21.338Z,5.46
2022-11-16T05:20:12.101Z,3.26
2022-11-16T05:22:43.630Z,5.53
2022-11-16T05:25:15.461Z,5.52
2022-11-16T05:27:46.964Z,5.50
2022-11-16T05:30:18.519Z,5.52
2022-11-16T05:32:50.055Z,5.56
2022-11-16T05:35:21.861Z,5.60
2022-11-16T05:37:53.359Z,5.61
2022-11-16T05:40:25.173Z,5.69
2022-11-16T05:42:56.666Z,4.64
2022-11-16T05:45:28.330Z,5.70
2022-11-16T05:47:59.895Z,5.74
2022-11-16T05:50:31.960Z,5.79
2022-11-16T05:53:03.476Z,5.78
2022-11-16T05:55:35.514Z,5.76
2022-11-16T05:58:07.080Z,5.77
2022-11-16T06:00:38.914Z,5.74
2022-11-16T06:03:10.492Z,5.76
2022-11-16T06:05:42.487Z,5.81
2022-11-16T06:08:13.994Z,5.78
2022-11-16T06:10:45.821Z,5.76
2022-11-16T06:13:17.359Z,5.76
2022-11-16T06:15:54.306Z,5.82
2022-11-16T06:18:25.840Z,5.80
2022-11-16T06:20:57.357Z,5.79
2022-11-16T06:23:28.855Z,5.76
2022-11-16T06:26:00.751Z,5.77
2022-11-16T06:28:32.494Z,5.79
2022-11-16T06:31:04.658Z,5.85
2022-11-16T06:33:36.176Z,5.91
2022-11-16T06:36:08.060Z,5.97
2022-11-16T06:38:39.596Z,5.95
2022-11-16T06:41:11.418Z,5.97
2022-11-16T06:43:42.981Z,6.02
2022-11-16T06:46:14.933Z,5.90
2022-11-16T06:48:46.427Z,6.00
2022-11-16T06:51:18.171Z,6.02
2022-11-16T06:53:49.719Z,6.03
2022-11-16T06:56:21.543Z,6.00
2022-11-16T06:58:53.730Z,5.95
2022-11-16T07:01:25.644Z,6.03
2022-11-16T07:03:57.217Z,6.12
2022-11-16T07:06:28.732Z,6.12
2022-11-16T07:09:00.262Z,6.14
2022-11-16T07:11:32.106Z,6.14
2022-11-16T07:14:03.696Z,6.09
2022-11-16T07:16:36.282Z,6.06
2022-11-16T07:19:07.845Z,6.13
2022-11-16T07:21:39.378Z,6.15
2022-11-16T07:24:10.882Z,6.22
2022-11-16T07:26:42.419Z,6.25
2022-11-16T07:29:15.554Z,6.25
2022-11-16T07:31:47.410Z,6.31
2022-11-16T07:34:18.912Z,6.33
2022-11-16T07:36:50.671Z,6.31
2022-11-16T07:39:22.234Z,6.28
2022-11-16T07:41:54.616Z,6.25
2022-11-16T07:44:26.171Z,6.33
2022-11-16T07:46:58.016Z,6.27
2022-11-16T07:49:29.493Z,6.30
2022-11-16T07:52:01.477Z,6.25
2022-11-16T07:54:32.975Z,6.33
2022-11-16T07:57:04.652Z,6.31
2022-11-16T07:59:36.196Z,6.35
2022-11-16T08:02:08.027Z,6.37
2022-11-16T08:04:39.533Z,6.33
2022-11-16T08:07:11.774Z,6.31
2022-11-16T08:09:43.547Z,6.37
2022-11-16T08:12:15.466Z,6.35
2022-11-16T08:14:46.969Z,6.42
2022-11-16T08:17:18.511Z,6.43
2022-11-16T08:19:50.438Z,6.27
2022-11-16T08:22:22.397Z,6.32
2022-11-16T08:24:53.951Z,6.32
2022-11-16T08:27:25.476Z,6.30
2022-11-16T08:29:56.990Z,6.37
2022-11-16T08:32:30.042Z,6.36
2022-11-16T08:35:01.564Z,6.41
2022-11-16T08:37:33.788Z,6.36
2022-11-16T08:40:05.339Z,6.40
2022-11-16T08:42:42.249Z,6.37
2022-11-16T08:45:15.349Z,6.30
2022-11-16T08:47:46.922Z,6.28
2022-11-16T08:50:18.473Z,6.31
2022-11-16T08:52:50.313Z,6.35
2022-11-16T08:55:21.870Z,6.44
2022-11-16T08:57:53.642Z,6.39
2022-11-16T09:00:25.151Z,6.46
2022-11-16T09:02:57.107Z,6.45
2022-11-16T09:05:28.606Z,6.48
2022-11-16T09:08:00.422Z,6.49
2022-11-16T09:10:31.952Z,6.46
2022-11-16T09:13:03.978Z,6.54
2022-11-16T09:15:35.505Z,6.57
2022-11-16T09:18:07.398Z,6.57
2022-11-16T09:20:38.922Z,6.52
2022-11-16T09:23:10.799Z,6.60
2022-11-16T09:25:42.340Z,6.58
2022-11-16T09:28:17.572Z,6.72
2022-11-16T09:30:49.514Z,6.62
2022-11-16T09:33:21.028Z,6.58
2022-11-16T09:35:52.961Z,6.56
2022-11-16T09:38:40.194Z,6.55
2022-11-16T09:41:16.289Z,6.64
2022-11-16T09:43:47.899Z,6.66
2022-11-16T09:46:20.685Z,6.66
2022-11-16T09:48:52.242Z,6.61
2022-11-16T09:51:24.156Z,6.55
2022-11-16T09:53:55.689Z,6.62
2022-11-16T09:56:27.716Z,6.53
2022-11-16T09:59:00.219Z,6.48
2022-11-16T10:01:32.221Z,6.49
2022-11-16T10:04:03.734Z,6.56
2022-11-16T10:06:35.253Z,6.61
2022-11-16T10:09:06.739Z,6.63
2022-11-16T10:11:38.254Z,6.67
2022-11-16T10:14:09.842Z,6.48
2022-11-16T10:16:41.835Z,6.52
2022-11-16T10:19:13.457Z,6.48
2022-11-16T10:21:45.446Z,6.37
2022-11-16T10:24:16.957Z,6.46
2022-11-16T10:26:48.753Z,6.42
2022-11-16T10:29:20.256Z,6.41
2022-11-16T10:31:52.353Z,6.35
2022-11-16T10:34:23.916Z,5.95
2022-11-16T10:36:55.876Z,6.43
2022-11-16T10:39:27.573Z,6.40
2022-11-16T10:42:03.220Z,6.56
2022-11-16T10:44:37.685Z,6.45
2022-11-16T10:47:09.535Z,6.47
2022-11-16T10:49:41.136Z,6.31
2022-11-16T10:52:13.154Z,6.37
2022-11-16T10:54:44.798Z,6.35
2022-11-16T10:57:17.646Z,6.32
2022-11-16T10:59:49.224Z,6.17
2022-11-16T11:02:21.137Z,6.30
2022-11-16T11:04:52.642Z,6.25
2022-11-16T11:07:25.110Z,6.35
2022-11-16T11:09:56.653Z,6.30
2022-11-16T11:12:40.743Z,6.26
2022-11-16T11:15:12.247Z,6.24
2022-11-16T11:17:44.130Z,6.33
2022-11-16T11:20:15.818Z,6.31
2022-11-16T11:22:47.631Z,6.30
2022-11-16T11:25:19.122Z,6.32
2022-11-16T11:27:50.983Z,6.44
2022-11-16T11:30:22.626Z,6.30
2022-11-16T11:32:54.615Z,6.27
2022-11-16T11:35:26.221Z,6.27
2022-11-16T11:37:59.007Z,6.33
2022-11-16T11:40:32.864Z,6.31
2022-11-16T11:43:04.698Z,6.42
2022-11-16T11:45:36.191Z,6.31
2022-11-16T11:48:08.367Z,6.24
2022-11-16T11:50:39.935Z,6.30
2022-11-16T11:53:11.954Z,6.37
2022-11-16T11:55:43.473Z,6.34
2022-11-16T11:58:15.470Z,6.24
2022-11-16T12:00:46.997Z,6.24
2022-11-16T12:03:18.809Z,6.15
2022-11-16T12:05:50.365Z,6.15
2022-11-16T12:08:21.896Z,6.15
2022-11-16T12:10:53.388Z,6.18
2022-11-16T12:13:25.445Z,6.18
2022-11-16T12:15:56.934Z,6.23
2022-11-16T12:18:28.425Z,6.25
2022-11-16T12:20:59.967Z,6.24
2022-11-16T12:23:31.713Z,6.23
2022-11-16T12:26:03.481Z,6.15
2022-11-16T12:28:35.572Z,6.19
2022-11-16T12:31:08.642Z,6.18
2022-11-16T12:33:40.682Z,6.19
2022-11-16T12:36:12.193Z,6.12
2022-11-16T12:38:44.170Z,6.16
2022-11-16T12:41:15.729Z,6.20
2022-11-16T12:43:47.715Z,6.26
2022-11-16T12:46:19.230Z,6.15
2022-11-16T12:48:53.734Z,6.21
2022-11-16T12:51:30.369Z,6.28
2022-11-16T12:54:03.538Z,6.26
2022-11-16T12:56:35.035Z,6.20
2022-11-16T12:59:06.711Z,6.24
2022-11-16T13:01:38.266Z,6.27
2022-11-16T13:04:10.106Z,6.19
2022-11-16T13:06:41.698Z,6.32
2022-11-16T13:09:13.676Z,6.39
2022-11-16T13:11:45.193Z,6.25
2022-11-16T13:14:17.024Z,6.35
2022-11-16T13:16:48.818Z,6.29
2022-11-16T13:19:20.372Z,6.39
2022-11-16T13:21:52.336Z,6.28
2022-11-16T13:24:23.826Z,6.26
2022-11-16T13:26:55.657Z,6.30
2022-11-16T13:29:30.218Z,6.33
2022-11-16T13:32:02.027Z,6.38
2022-11-16T13:34:33.525Z,6.40
2022-11-16T13:37:05.340Z,6.45
2022-11-16T13:39:36.862Z,6.49
2022-11-16T13:42:08.723Z,6.41
2022-11-16T13:44:40.211Z,6.45
2022-11-16T13:47:11.963Z,6.49
2022-11-16T13:49:43.444Z,6.52
2022-11-16T13:52:23.640Z,6.52
2022-11-16T13:54:56.857Z,6.54
2022-11-16T13:57:28.857Z,6.54
2022-11-16T14:00:00.354Z,6.51
2022-11-16T14:02:32.222Z,6.57
2022-11-16T14:05:03.837Z,6.62
2022-11-16T14:07:35.743Z,6.55
2022-11-16T14:10:07.819Z,6.58
2022-11-16T14:12:39.628Z,6.63
2022-11-16T14:15:11.106Z,6.56
2022-11-16T14:17:42.923Z,6.03
2022-11-16T14:20:17.138Z,6.56
2022-11-16T14:22:54.083Z,6.54
2022-11-16T14:25:25.591Z,6.59
2022-11-16T14:27:57.433Z,6.60
2022-11-16T14:30:28.933Z,6.62
2022-11-16T14:33:00.470Z,6.67
2022-11-16T14:35:31.987Z,6.67
2022-11-16T14:38:03.627Z,6.67
2022-11-16T14:40:35.141Z,6.68
2022-11-16T14:43:23.029Z,6.62
2022-11-16T14:45:54.569Z,6.62
2022-11-16T14:48:26.187Z,6.68
2022-11-16T14:50:57.690Z,6.61
2022-11-16T14:53:29.275Z,6.57
2022-11-16T14:56:00.774Z,6.60
2022-11-16T14:58:32.770Z,6.60
2022-11-16T15:01:04.279Z,6.58
2022-11-16T15:03:36.407Z,6.61
2022-11-16T15:06:08.228Z,6.73
2022-11-16T15:08:40.179Z,6.67
2022-11-16T15:11:11.728Z,6.62
2022-11-16T15:13:43.265Z,6.59
2022-11-16T15:16:14.897Z,6.45
2022-11-16T15:18:46.706Z,6.44
2022-11-16T15:21:18.208Z,5.71
2022-11-16T15:24:15.628Z,6.51
2022-11-16T15:26:41.491Z,6.47
2022-11-16T15:29:13.310Z,6.41
2022-11-16T15:31:44.812Z,6.39
2022-11-16T15:34:16.741Z,6.44
2022-11-16T15:36:48.831Z,6.43
2022-11-16T15:39:20.379Z,6.46
2022-11-16T15:41:52.136Z,6.47
2022-11-16T15:44:24.200Z,6.38
2022-11-16T15:46:55.681Z,6.29
2022-11-16T15:49:27.666Z,6.35
2022-11-16T15:51:59.161Z,6.20
2022-11-16T15:54:31.128Z,6.15
2022-11-16T15:57:02.648Z,6.21
2022-11-16T15:59:34.676Z,6.16
2022-11-16T16:02:06.178Z,6.17
2022-11-16T16:04:37.982Z,6.05
2022-11-16T16:07:10.213Z,6.14
2022-11-16T16:09:42.148Z,5.97
2022-11-16T16:12:13.685Z,6.00
2022-11-16T16:14:45.640Z,5.92
2022-11-16T16:17:17.152Z,5.96
2022-11-16T16:19:48.989Z,5.90
2022-11-16T16:22:20.500Z,5.94
2022-11-16T16:24:52.503Z,5.90
2022-11-16T16:27:24.023Z,5.93
2022-11-16T16:29:55.893Z,5.95
2022-11-16T16:32:27.459Z,5.92
2022-11-16T16:34:59.301Z,5.94
2022-11-16T16:37:30.902Z,5.95
2022-11-16T16:40:02.837Z,5.92
2022-11-16T16:42:34.337Z,5.94
2022-11-16T16:45:06.195Z,5.88
2022-11-16T16:47:37.693Z,5.92
2022-11-16T16:50:09.559Z,5.98
2022-11-16T16:52:41.113Z,5.91
2022-11-16T16:55:12.639Z,5.93
2022-11-16T16:57:44.129Z,5.83
2022-11-16T17:00:15.921Z,5.88
2022-11-16T17:02:47.407Z,5.94
2022-11-16T17:05:18.959Z,5.89
2022-11-16T17:07:50.645Z,5.97
2022-11-16T17:10:22.465Z,5.87
2022-11-16T17:12:53.952Z,5.91
2022-11-16T17:15:25.485Z,5.89
2022-11-16T17:17:56.995Z,5.94
2022-11-16T17:20:28.944Z,5.89
2022-11-16T17:23:00.449Z,5.88
2022-11-16T17:25:33.465Z,5.92
2022-11-16T17:28:05.002Z,5.89
2022-11-16T17:30:36.911Z,5.92
2022-11-16T17:33:08.752Z,5.94
2022-11-16T17:35:41.453Z,5.98
2022-11-16T17:38:13.412Z,5.90
2022-11-16T17:40:44.904Z,5.95
2022-11-16T17:43:16.768Z,5.95
2022-11-16T17:45:48.273Z,5.96
2022-11-16T17:48:20.104Z,5.97
2022-11-16T17:50:51.605Z,5.97
2022-11-16T17:53:26.142Z,6.03
2022-11-16T17:55:59.906Z,5.94
2022-11-16T17:58:31.756Z,5.28
2022-11-16T18:01:03.269Z,5.99
2022-11-16T18:03:35.468Z,6.02
2022-11-16T18:06:07.256Z,5.97
2022-11-16T18:08:39.215Z,6.01
2022-11-16T18:11:10.717Z,5.97
2022-11-16T18:13:42.577Z,5.98
2022-11-16T18:16:14.087Z,5.91
2022-11-16T18:18:45.983Z,5.88
2022-11-16T18:21:20.623Z,5.89
2022-11-16T18:23:52.824Z,5.91
2022-11-16T18:26:24.404Z,5.45
2022-11-16T18:28:56.417Z,5.87
2022-11-16T18:31:29.681Z,5.87
2022-11-16T18:34:01.560Z,5.91
2022-11-16T18:36:33.106Z,5.84
2022-11-16T18:39:04.952Z,5.88
2022-11-16T18:41:36.569Z,5.92
2022-11-16T18:44:08.484Z,5.94
2022-11-16T18:46:40.016Z,5.11
2022-11-16T18:49:12.396Z,5.93
2022-11-16T18:51:43.917Z,5.91
2022-11-16T18:54:15.719Z,5.95
2022-11-16T18:56:47.844Z,5.94
2022-11-16T18:59:19.482Z,5.94
2022-11-16T19:01:50.988Z,5.97
2022-11-16T19:04:22.897Z,6.03
2022-11-16T19:06:54.421Z,6.04
2022-11-16T19:09:30.792Z,5.94
2022-11-16T19:12:02.285Z,5.89
2022-11-16T19:14:34.180Z,5.96
2022-11-16T19:17:05.688Z,6.01
2022-11-16T19:19:37.721Z,6.04
2022-11-16T19:22:09.237Z,5.96
2022-11-16T19:24:41.065Z,6.00
2022-11-16T19:27:12.586Z,5.97
2022-11-16T19:29:44.408Z,5.91
2022-11-16T19:32:15.937Z,5.88
2022-11-16T19:34:48.027Z,5.94
2022-11-16T19:37:19.849Z,5.91
2022-11-16T19:39:51.654Z,5.83
2022-11-16T19:42:23.141Z,5.82
2022-11-16T19:44:55.006Z,5.86
2022-11-16T19:47:26.511Z,5.86
2022-11-16T19:49:58.431Z,5.89
2022-11-16T19:52:30.101Z,5.97
2022-11-16T19:55:02.095Z,5.92
2022-11-16T19:57:33.568Z,5.84
2022-11-16T20:00:05.375Z,5.89
2022-11-16T20:02:38.649Z,5.91
2022-11-16T20:05:10.172Z,5.86
2022-11-16T20:07:42.437Z,5.90
2022-11-16T20:10:13.948Z,5.94
2022-11-16T20:12:45.484Z,5.95
2022-11-16T20:15:17.427Z,5.99
2022-11-16T20:17:48.928Z,5.91
2022-11-16T20:20:20.972Z,5.94
2022-11-16T20:22:53.615Z,5.99
2022-11-16T20:25:25.136Z,6.00
2022-11-16T20:27:56.630Z,5.94
2022-11-16T20:30:28.448Z,5.97
2022-11-16T20:32:59.944Z,5.98
2022-11-16T20:35:32.059Z,6.04
2022-11-16T20:38:03.588Z,6.06
2022-11-16T20:40:35.637Z,6.08
2022-11-16T20:43:09.070Z,6.03
2022-11-16T20:45:40.986Z,6.02
2022-11-16T20:48:12.503Z,6.06
2022-11-16T20:50:45.542Z,6.05
2022-11-16T20:53:17.371Z,6.01
2022-11-16T20:55:49.477Z,6.01
2022-11-16T20:58:23.903Z,6.03
2022-11-16T21:00:55.460Z,5.98
2022-11-16T21:03:27.277Z,5.97
2022-11-16T21:05:58.782Z,5.98
2022-11-16T21:08:30.780Z,5.94
2022-11-16T21:11:02.280Z,5.91
2022-11-16T21:13:52.953Z,5.84
2022-11-16T21:16:24.453Z,5.88
2022-11-16T21:18:56.403Z,5.89
2022-11-16T21:21:27.952Z,5.86
2022-11-16T21:23:59.737Z,5.87
2022-11-16T21:26:31.294Z,5.70
2022-11-16T21:29:03.276Z,5.71
2022-11-16T21:31:34.819Z,5.61
2022-11-16T21:34:07.784Z,5.62
2022-11-16T21:36:39.313Z,5.59
2022-11-16T21:39:11.194Z,5.59
2022-11-16T21:41:42.660Z,5.60
2022-11-16T21:44:14.523Z,5.55
2022-11-16T21:46:45.998Z,5.52
2022-11-16T21:49:18.529Z,5.56
2022-11-16T21:51:50.026Z,5.55
2022-11-16T21:54:41.780Z,5.55
2022-11-16T21:57:13.296Z,5.47
2022-11-16T21:59:45.157Z,5.47
2022-11-16T22:02:16.696Z,5.51
2022-11-16T22:05:07.565Z,5.34
2022-11-16T22:07:39.086Z,5.36
2022-11-16T22:10:10.980Z,5.31
2022-11-16T22:12:42.467Z,5.37
2022-11-16T22:15:14.209Z,5.36
2022-11-16T22:17:45.665Z,5.41
2022-11-16T22:20:17.499Z,5.31
2022-11-16T22:22:49.026Z,5.30
2022-11-16T22:25:21.028Z,5.33
2022-11-16T22:28:19.206Z,5.30
2022-11-16T22:30:47.412Z,5.26
2022-11-16T22:33:22.821Z,5.18
2022-11-16T22:35:54.669Z,5.08
2022-11-16T22:38:26.141Z,5.15
2022-11-16T22:40:58.151Z,5.25
2022-11-16T22:43:29.868Z,5.10
2022-11-16T22:46:01.722Z,5.12
2022-11-16T22:48:33.219Z,5.13
2022-11-16T22:51:05.036Z,5.08
2022-11-16T22:53:36.935Z,5.18
2022-11-16T22:56:08.960Z,5.18
2022-11-16T22:58:40.427Z,5.07
2022-11-16T23:01:12.105Z,5.07
2022-11-16T23:03:43.670Z,5.07
2022-11-16T23:06:15.559Z,5.00
2022-11-16T23:08:47.102Z,5.03
2022-11-16T23:11:37.452Z,5.07
2022-11-16T23:14:27.520Z,4.98
2022-11-16T23:16:59.308Z,5.00
2022-11-16T23:19:49.430Z,4.80
2022-11-16T23:22:40.233Z,4.84
2022-11-16T23:25:30.380Z,4.78
2022-11-16T23:28:02.319Z,4.75
2022-11-16T23:30:33.847Z,4.68
2022-11-16T23:33:05.825Z,4.53
2022-11-16T23:35:37.332Z,4.50
2022-11-16T23:38:09.017Z,4.51
2022-11-16T23:40:40.533Z,4.53
2022-11-16T23:43:31.355Z,4.52
2022-11-16T23:46:03.209Z,4.49
2022-11-16T23:48:34.714Z,4.46
2022-11-16T23:51:06.507Z,4.38
2022-11-16T23:53:38.147Z,4.27
2022-11-16T23:56:10.122Z,4.27
2022-11-16T23:58:41.652Z,4.36
